Time;durP1;ratioP1;P1;durP2;ratioP2;P2;SDS_P1;SDS_P2;PMS_P1;PMS_P2;Temp;Humidity;BMP_temperature;BMP_pressure;BME280_temperature;BME280_humidity;BME280_pressure;Samples;Min_cycle;Max_cycle;Signal;HPM_P1;HPM_P2
2021/09/19 00:00:27;;;;;;;29.08;8.90;;;;;;;;;;5009241;28;20053;-43
2021/09/19 00:02:54;;;;;;;33.55;9.07;;;;;;;;;;5010352;28;20022;-41
2021/09/19 00:05:21;;;;;;;32.97;8.98;;;;;;;;;;5006909;28;20049;-41
2021/09/19 00:07:48;;;;;;;24.00;8.85;;;;;;;;;;5011237;28;20520;-42
2021/09/19 00:10:17;;;;;;;32.92;8.93;;;;;;;;;;5013424;28;20389;-43
2021/09/19 00:12:44;;;;;;;33.38;8.60;;;;;;;;;;5013275;28;20022;-42
2021/09/19 00:15:13;;;;;;;37.08;8.80;;;;;;;;;;5013804;28;20018;-40
2021/09/19 00:17:40;;;;;;;61.83;10.70;;;;;;;;;;5013081;28;20061;-41
2021/09/19 00:20:08;;;;;;;39.67;9.05;;;;;;;;;;5009874;28;20021;-41
2021/09/19 00:22:35;;;;;;;45.10;9.63;;;;;;;;;;5011239;28;21230;-40
2021/09/19 00:25:02;;;;;;;36.80;8.48;;;;;;;;;;5010927;28;20029;-41
2021/09/19 00:27:29;;;;;;;32.00;9.82;;;;;;;;;;5010572;28;20053;-40
2021/09/19 00:29:56;;;;;;;27.92;8.38;;;;;;;;;;5010145;28;20117;-40
2021/09/19 00:32:25;;;;;;;36.35;8.65;;;;;;;;;;5011820;28;20394;-43
2021/09/19 00:34:52;;;;;;;36.17;9.25;;;;;;;;;;5007213;28;20034;-41
2021/09/19 00:37:19;;;;;;;35.90;8.70;;;;;;;;;;4999894;28;20097;-40
2021/09/19 00:39:46;;;;;;;32.58;9.13;;;;;;;;;;4994715;28;20025;-41
2021/09/19 00:42:13;;;;;;;35.55;9.70;;;;;;;;;;4996641;28;20033;-40
2021/09/19 00:44:41;;;;;;;34.30;13.05;;;;;;;;;;4994499;28;20486;-41
2021/09/19 00:47:08;;;;;;;33.15;12.90;;;;;;;;;;5009556;28;20049;-41
2021/09/19 00:49:35;;;;;;;40.47;13.52;;;;;;;;;;5002724;28;20055;-41
2021/09/19 00:52:02;;;;;;;42.15;14.60;;;;;;;;;;5008422;28;20457;-40
2021/09/19 00:54:29;;;;;;;45.25;15.30;;;;;;;;;;5005156;28;20039;-41
2021/09/19 00:56:56;;;;;;;43.47;16.77;;;;;;;;;;5006351;28;20481;-42
2021/09/19 00:59:24;;;;;;;37.78;15.27;;;;;;;;;;5003441;28;20400;-41
2021/09/19 01:01:53;;;;;;;43.00;15.68;;;;;;;;;;5001155;28;20027;-41
2021/09/19 01:04:21;;;;;;;46.45;17.80;;;;;;;;;;4996506;28;20026;-41
2021/09/19 01:06:48;;;;;;;41.50;16.33;;;;;;;;;;4995309;28;20026;-40
2021/09/19 01:09:16;;;;;;;41.50;15.52;;;;;;;;;;4998671;28;20048;-40
2021/09/19 01:11:44;;;;;;;43.33;16.10;;;;;;;;;;4994985;28;20049;-40
2021/09/19 01:14:13;;;;;;;37.10;15.20;;;;;;;;;;4994332;28;20026;-40
2021/09/19 01:16:40;;;;;;;35.33;14.55;;;;;;;;;;4995212;28;20386;-39
2021/09/19 01:19:13;;;;;;;34.83;14.18;;;;;;;;;;4991609;28;20097;-40
2021/09/19 01:21:40;;;;;;;35.30;14.00;;;;;;;;;;4993153;28;20537;-40
2021/09/19 01:24:07;;;;;;;37.35;13.82;;;;;;;;;;4990713;28;20027;-40
2021/09/19 01:26:35;;;;;;;32.80;13.95;;;;;;;;;;4992801;28;20029;-40
2021/09/19 01:29:01;;;;;;;35.47;13.07;;;;;;;;;;4993440;28;20042;-40
2021/09/19 01:31:29;;;;;;;24.63;12.38;;;;;;;;;;4995411;28;20018;-40
2021/09/19 01:33:56;;;;;;;27.63;12.20;;;;;;;;;;4993887;28;20026;-40
2021/09/19 01:36:23;;;;;;;32.38;12.80;;;;;;;;;;4998167;28;20030;-40
2021/09/19 01:38:50;;;;;;;30.50;12.32;;;;;;;;;;4996360;28;20029;-40
2021/09/19 01:41:22;;;;;;;37.00;12.60;;;;;;;;;;4998436;28;20041;-39
2021/09/19 01:43:49;;;;;;;31.25;11.85;;;;;;;;;;4997691;28;20027;-42
2021/09/19 01:46:17;;;;;;;29.38;12.40;;;;;;;;;;4993295;28;20058;-41
2021/09/19 01:48:44;;;;;;;37.55;11.95;;;;;;;;;;4994243;28;20022;-40
2021/09/19 01:51:12;;;;;;;39.80;11.60;;;;;;;;;;4995573;28;20026;-41
2021/09/19 01:53:39;;;;;;;24.58;11.00;;;;;;;;;;4994857;28;20442;-40
2021/09/19 01:56:08;;;;;;;24.75;11.07;;;;;;;;;;4998144;28;20037;-40
2021/09/19 01:58:45;;;;;;;22.60;10.75;;;;;;;;;;4991922;28;20024;-42
2021/09/19 02:01:12;;;;;;;23.73;10.00;;;;;;;;;;4995022;28;20028;-40
2021/09/19 02:03:40;;;;;;;25.55;10.40;;;;;;;;;;4997234;28;20037;-42
2021/09/19 02:06:08;;;;;;;28.13;10.80;;;;;;;;;;4995687;28;20369;-42
2021/09/19 02:08:36;;;;;;;29.25;9.50;;;;;;;;;;4995834;28;20034;-40
2021/09/19 02:11:05;;;;;;;25.13;9.02;;;;;;;;;;4994544;28;20034;-42
2021/09/19 02:13:32;;;;;;;21.70;8.90;;;;;;;;;;4996189;28;20081;-42
2021/09/19 02:16:00;;;;;;;26.10;9.77;;;;;;;;;;5001042;28;20025;-40
2021/09/19 02:18:27;;;;;;;28.02;9.68;;;;;;;;;;4997508;28;20117;-39
2021/09/19 02:20:54;;;;;;;25.90;8.93;;;;;;;;;;4999026;28;20018;-39
2021/09/19 02:23:21;;;;;;;18.85;8.60;;;;;;;;;;4997141;28;20084;-39
2021/09/19 02:25:50;;;;;;;20.58;9.25;;;;;;;;;;4998256;28;20109;-38
2021/09/19 02:28:18;;;;;;;26.42;8.93;;;;;;;;;;4998719;28;20359;-38
2021/09/19 02:30:49;;;;;;;23.52;8.77;;;;;;;;;;4996157;28;20050;-39
2021/09/19 02:33:17;;;;;;;17.55;8.48;;;;;;;;;;4994753;28;20089;-39
2021/09/19 02:35:44;;;;;;;23.25;8.15;;;;;;;;;;4999604;28;20030;-39
2021/09/19 02:38:12;;;;;;;21.40;7.85;;;;;;;;;;4993939;28;20394;-41
2021/09/19 02:40:39;;;;;;;19.50;7.80;;;;;;;;;;4998985;28;20494;-40
2021/09/19 02:43:09;;;;;;;18.77;7.95;;;;;;;;;;4995357;28;20052;-40
2021/09/19 02:45:36;;;;;;;20.20;7.00;;;;;;;;;;5000683;28;20117;-41
2021/09/19 02:48:03;;;;;;;19.55;8.18;;;;;;;;;;4998225;28;20385;-40
2021/09/19 02:50:30;;;;;;;17.27;7.35;;;;;;;;;;5006183;28;20046;-41
2021/09/19 02:52:57;;;;;;;18.90;7.60;;;;;;;;;;5000394;28;20046;-39
2021/09/19 02:55:24;;;;;;;18.70;7.75;;;;;;;;;;5000175;28;20030;-43
2021/09/19 02:57:51;;;;;;;16.65;7.63;;;;;;;;;;5001738;28;20022;-40
2021/09/19 03:00:19;;;;;;;17.27;7.13;;;;;;;;;;5004872;28;20053;-39
2021/09/19 03:02:47;;;;;;;21.80;8.63;;;;;;;;;;5003088;28;20029;-40
2021/09/19 03:05:14;;;;;;;23.30;7.50;;;;;;;;;;5002723;28;20037;-39
2021/09/19 03:07:42;;;;;;;15.25;6.97;;;;;;;;;;5001175;28;20358;-42
2021/09/19 03:10:10;;;;;;;18.45;6.90;;;;;;;;;;4998695;28;20042;-41
2021/09/19 03:12:37;;;;;;;20.00;7.25;;;;;;;;;;4996563;28;20184;-40
2021/09/19 03:15:05;;;;;;;14.60;7.07;;;;;;;;;;5002818;28;20053;-41
2021/09/19 03:17:32;;;;;;;17.55;6.47;;;;;;;;;;5002235;28;20096;-42
2021/09/19 03:19:59;;;;;;;16.63;7.07;;;;;;;;;;5002242;28;20057;-41
2021/09/19 03:22:26;;;;;;;17.13;7.43;;;;;;;;;;5002357;28;20033;-40
2021/09/19 03:24:54;;;;;;;18.38;7.10;;;;;;;;;;5000334;28;20025;-41
2021/09/19 03:27:21;;;;;;;21.23;6.95;;;;;;;;;;5005444;28;20041;-40
2021/09/19 03:29:48;;;;;;;18.90;7.00;;;;;;;;;;5011062;28;20429;-41
2021/09/19 03:32:15;;;;;;;12.20;6.07;;;;;;;;;;5013205;28;20029;-41
2021/09/19 03:34:42;;;;;;;13.75;5.97;;;;;;;;;;5015378;28;20057;-41
2021/09/19 03:37:09;;;;;;;19.05;6.80;;;;;;;;;;5015174;28;20032;-41
2021/09/19 03:39:36;;;;;;;16.42;6.93;;;;;;;;;;5015160;28;20021;-41
2021/09/19 03:42:03;;;;;;;12.32;6.20;;;;;;;;;;5015348;28;20389;-40
2021/09/19 03:44:30;;;;;;;14.65;6.38;;;;;;;;;;5014799;28;20021;-41
2021/09/19 03:46:58;;;;;;;11.75;5.93;;;;;;;;;;5014969;28;20370;-39
2021/09/19 03:49:25;;;;;;;14.30;5.68;;;;;;;;;;5015004;28;20137;-41
2021/09/19 03:51:52;;;;;;;13.68;6.07;;;;;;;;;;5014548;28;20069;-40
2021/09/19 03:54:19;;;;;;;17.48;6.43;;;;;;;;;;5014896;28;20157;-41
2021/09/19 03:56:46;;;;;;;14.70;6.38;;;;;;;;;;5014157;28;20494;-42
2021/09/19 03:59:13;;;;;;;13.07;5.47;;;;;;;;;;5013550;28;20030;-41
2021/09/19 04:01:40;;;;;;;18.38;5.55;;;;;;;;;;5014959;28;20025;-40
2021/09/19 04:04:07;;;;;;;10.55;5.22;;;;;;;;;;5014922;28;20030;-41
2021/09/19 04:06:34;;;;;;;10.27;5.32;;;;;;;;;;5014950;28;20022;-42
2021/09/19 04:09:01;;;;;;;13.80;6.40;;;;;;;;;;5014887;28;20039;-40
2021/09/19 04:11:28;;;;;;;8.90;5.25;;;;;;;;;;5014869;28;20051;-40
2021/09/19 04:13:55;;;;;;;10.32;5.78;;;;;;;;;;5014616;28;20018;-41
2021/09/19 04:16:22;;;;;;;15.05;5.50;;;;;;;;;;5014791;28;20474;-41
2021/09/19 04:18:49;;;;;;;12.93;5.72;;;;;;;;;;5014940;28;20474;-42
2021/09/19 04:21:16;;;;;;;14.60;5.60;;;;;;;;;;5014559;28;20026;-41
2021/09/19 04:23:43;;;;;;;12.63;5.20;;;;;;;;;;5014583;28;20017;-41
2021/09/19 04:26:10;;;;;;;13.20;5.43;;;;;;;;;;5014688;28;20513;-43
2021/09/19 04:28:37;;;;;;;10.32;4.97;;;;;;;;;;5014305;28;20478;-41
2021/09/19 04:31:04;;;;;;;9.45;4.85;;;;;;;;;;5014343;28;20044;-41
2021/09/19 04:33:31;;;;;;;10.65;5.30;;;;;;;;;;5014538;28;20044;-41
2021/09/19 04:35:58;;;;;;;9.80;4.82;;;;;;;;;;5014398;28;20104;-41
2021/09/19 04:38:25;;;;;;;9.82;4.80;;;;;;;;;;5013042;28;20032;-41
2021/09/19 04:40:52;;;;;;;11.90;5.03;;;;;;;;;;5013821;28;20018;-41
2021/09/19 04:43:19;;;;;;;9.35;5.03;;;;;;;;;;5013877;28;20374;-41
2021/09/19 04:45:46;;;;;;;8.05;5.10;;;;;;;;;;5014232;28;20033;-41
2021/09/19 04:48:13;;;;;;;11.60;5.10;;;;;;;;;;5014183;28;20030;-41
2021/09/19 04:50:40;;;;;;;12.18;4.90;;;;;;;;;;5013845;28;20117;-41
2021/09/19 04:53:07;;;;;;;9.93;5.03;;;;;;;;;;5013784;28;20077;-41
2021/09/19 04:55:34;;;;;;;10.82;5.10;;;;;;;;;;5014045;28;20053;-41
2021/09/19 04:58:01;;;;;;;11.48;4.80;;;;;;;;;;5013918;28;20033;-41
2021/09/19 05:00:28;;;;;;;9.60;4.90;;;;;;;;;;5013789;28;20042;-41
2021/09/19 05:02:55;;;;;;;8.38;3.97;;;;;;;;;;5013858;28;20022;-41
2021/09/19 05:05:22;;;;;;;10.52;4.72;;;;;;;;;;5013882;28;20022;-41
2021/09/19 05:07:49;;;;;;;8.60;4.65;;;;;;;;;;5013765;28;20022;-41
2021/09/19 05:10:16;;;;;;;7.90;4.50;;;;;;;;;;5013692;28;20037;-41
2021/09/19 05:12:43;;;;;;;7.43;4.40;;;;;;;;;;5013662;28;20021;-42
2021/09/19 05:15:10;;;;;;;7.90;4.30;;;;;;;;;;5013424;28;20378;-41
2021/09/19 05:17:37;;;;;;;12.13;4.18;;;;;;;;;;5013656;28;20069;-41
2021/09/19 05:20:04;;;;;;;6.80;4.18;;;;;;;;;;5013717;28;20141;-41
2021/09/19 05:22:31;;;;;;;7.20;4.28;;;;;;;;;;5012208;28;20379;-41
2021/09/19 05:24:58;;;;;;;8.95;4.13;;;;;;;;;;5013519;28;20034;-40
2021/09/19 05:27:25;;;;;;;9.65;5.00;;;;;;;;;;5012173;28;20022;-41
2021/09/19 05:29:52;;;;;;;6.57;3.72;;;;;;;;;;5013362;28;20034;-41
2021/09/19 05:32:19;;;;;;;7.95;3.85;;;;;;;;;;5013368;28;20033;-41
2021/09/19 05:34:46;;;;;;;8.38;3.88;;;;;;;;;;5013448;28;20092;-41
2021/09/19 05:37:13;;;;;;;8.32;4.07;;;;;;;;;;5013374;28;20021;-42
2021/09/19 05:39:40;;;;;;;5.93;3.78;;;;;;;;;;5013183;28;20026;-39
2021/09/19 05:42:07;;;;;;;6.63;3.63;;;;;;;;;;5013247;28;20486;-40
2021/09/19 05:44:35;;;;;;;7.00;4.05;;;;;;;;;;5013164;28;20029;-40
2021/09/19 05:47:01;;;;;;;9.07;4.30;;;;;;;;;;5013014;28;20029;-39
2021/09/19 05:49:28;;;;;;;9.45;3.80;;;;;;;;;;5013026;28;20485;-41
2021/09/19 05:51:55;;;;;;;7.25;4.25;;;;;;;;;;5012274;28;20072;-41
2021/09/19 05:54:22;;;;;;;6.97;4.03;;;;;;;;;;5012606;28;20052;-41
2021/09/19 05:56:50;;;;;;;7.68;4.10;;;;;;;;;;5013019;28;20497;-40
2021/09/19 05:59:17;;;;;;;7.60;3.83;;;;;;;;;;5012752;28;20022;-41
2021/09/19 06:01:44;;;;;;;6.28;4.22;;;;;;;;;;5012799;28;20058;-41
2021/09/19 06:04:11;;;;;;;9.55;4.30;;;;;;;;;;5012798;28;20429;-41
2021/09/19 06:06:38;;;;;;;10.90;4.18;;;;;;;;;;5012754;28;20029;-42
2021/09/19 06:09:05;;;;;;;11.95;4.10;;;;;;;;;;5012592;28;20104;-42
2021/09/19 06:11:32;;;;;;;8.80;4.30;;;;;;;;;;5012833;28;20112;-42
2021/09/19 06:13:59;;;;;;;14.05;4.00;;;;;;;;;;5012627;28;20022;-42
2021/09/19 06:16:26;;;;;;;8.13;4.18;;;;;;;;;;5012516;28;20064;-42
2021/09/19 06:18:53;;;;;;;6.78;3.70;;;;;;;;;;5011492;28;20030;-42
2021/09/19 06:21:20;;;;;;;6.05;3.63;;;;;;;;;;5012435;28;20058;-42
2021/09/19 06:23:47;;;;;;;8.10;3.80;;;;;;;;;;5012506;28;20030;-41
2021/09/19 06:26:14;;;;;;;7.57;3.45;;;;;;;;;;5012374;28;20041;-42
2021/09/19 06:28:41;;;;;;;6.82;3.97;;;;;;;;;;5012462;28;20022;-41
2021/09/19 06:31:08;;;;;;;7.45;3.78;;;;;;;;;;5012231;28;20058;-41
2021/09/19 06:33:35;;;;;;;7.47;3.38;;;;;;;;;;5012511;28;20026;-41
2021/09/19 06:36:02;;;;;;;6.13;3.75;;;;;;;;;;5012284;28;20033;-41
2021/09/19 06:38:29;;;;;;;7.20;3.90;;;;;;;;;;5012216;28;20049;-40
2021/09/19 06:40:56;;;;;;;6.20;3.55;;;;;;;;;;5010151;28;20029;-41
2021/09/19 06:43:23;;;;;;;5.57;3.30;;;;;;;;;;5012144;28;20021;-41
2021/09/19 06:45:50;;;;;;;3.90;3.15;;;;;;;;;;5011866;28;20029;-42
2021/09/19 06:48:17;;;;;;;5.72;3.60;;;;;;;;;;5012309;28;20018;-41
2021/09/19 06:50:45;;;;;;;6.25;3.80;;;;;;;;;;5011986;28;20034;-41
2021/09/19 06:53:12;;;;;;;7.88;4.07;;;;;;;;;;5011898;28;20508;-41
2021/09/19 06:55:39;;;;;;;5.60;3.60;;;;;;;;;;5010851;28;20425;-42
2021/09/19 06:58:06;;;;;;;7.97;3.55;;;;;;;;;;5012130;28;20030;-42
2021/09/19 07:00:33;;;;;;;4.63;3.25;;;;;;;;;;5012030;28;20033;-41
2021/09/19 07:03:00;;;;;;;7.88;3.40;;;;;;;;;;5012057;28;20026;-41
2021/09/19 07:05:27;;;;;;;4.90;3.40;;;;;;;;;;5015957;28;20030;-41
2021/09/19 07:07:54;;;;;;;5.40;3.40;;;;;;;;;;5016017;28;20430;-41
2021/09/19 07:10:21;;;;;;;7.68;3.15;;;;;;;;;;5015829;28;20103;-41
2021/09/19 07:12:48;;;;;;;6.97;3.20;;;;;;;;;;5016010;28;20105;-41
2021/09/19 07:15:15;;;;;;;5.97;3.20;;;;;;;;;;5015699;28;20033;-41
2021/09/19 07:17:42;;;;;;;9.57;3.70;;;;;;;;;;5015899;28;20051;-40
2021/09/19 07:20:10;;;;;;;5.30;3.45;;;;;;;;;;5015807;28;20080;-41
2021/09/19 07:22:40;;;;;;;6.55;3.22;;;;;;;;;;5015773;28;20492;-40
2021/09/19 07:25:08;;;;;;;6.38;3.45;;;;;;;;;;5015469;28;20026;-41
2021/09/19 07:27:35;;;;;;;12.23;3.67;;;;;;;;;;5015713;28;20370;-41
2021/09/19 07:30:02;;;;;;;6.10;3.55;;;;;;;;;;5015415;28;20033;-41
2021/09/19 07:32:31;;;;;;;6.80;3.78;;;;;;;;;;5015524;28;20144;-41
2021/09/19 07:34:58;;;;;;;7.05;3.42;;;;;;;;;;5015578;28;20030;-42
2021/09/19 07:37:25;;;;;;;5.72;3.00;;;;;;;;;;5015379;28;20076;-41
2021/09/19 07:39:52;;;;;;;8.48;3.20;;;;;;;;;;5015316;28;20111;-43
2021/09/19 07:42:20;;;;;;;6.20;3.15;;;;;;;;;;5015478;28;20065;-41
2021/09/19 07:44:46;;;;;;;5.05;3.00;;;;;;;;;;5015263;28;20032;-41
2021/09/19 07:47:14;;;;;;;6.45;3.35;;;;;;;;;;5015164;28;20479;-41
2021/09/19 07:49:41;;;;;;;5.05;3.38;;;;;;;;;;5015257;28;20044;-40
2021/09/19 07:52:09;;;;;;;4.60;2.95;;;;;;;;;;5014943;28;20025;-40
2021/09/19 07:54:36;;;;;;;5.53;3.17;;;;;;;;;;5014864;28;20121;-42
2021/09/19 07:57:03;;;;;;;5.45;2.88;;;;;;;;;;5015182;28;20101;-41
2021/09/19 07:59:30;;;;;;;4.13;2.75;;;;;;;;;;5014970;28;20076;-43
2021/09/19 08:01:57;;;;;;;6.25;3.40;;;;;;;;;;5014979;28;20080;-41
2021/09/19 08:04:24;;;;;;;3.53;2.90;;;;;;;;;;5015017;28;20029;-41
2021/09/19 08:06:51;;;;;;;4.22;2.88;;;;;;;;;;5014792;28;20022;-41
2021/09/19 08:09:18;;;;;;;7.72;3.22;;;;;;;;;;5013501;28;20033;-41
2021/09/19 08:11:45;;;;;;;3.47;2.78;;;;;;;;;;5015011;28;20026;-41
2021/09/19 08:14:12;;;;;;;6.55;2.78;;;;;;;;;;5014889;28;20080;-41
2021/09/19 08:16:41;;;;;;;5.80;3.42;;;;;;;;;;5013740;28;20105;-41
2021/09/19 08:19:09;;;;;;;6.05;3.10;;;;;;;;;;5014481;28;20398;-40
2021/09/19 08:21:37;;;;;;;5.60;3.50;;;;;;;;;;5014677;28;20053;-42
2021/09/19 08:24:08;;;;;;;5.78;3.03;;;;;;;;;;5014563;28;20018;-41
2021/09/19 08:26:35;;;;;;;5.93;2.70;;;;;;;;;;5014572;28;20526;-41
2021/09/19 08:29:02;;;;;;;6.32;3.10;;;;;;;;;;5014467;28;20029;-41
2021/09/19 08:31:30;;;;;;;5.05;3.00;;;;;;;;;;5014405;28;20152;-41
2021/09/19 08:33:57;;;;;;;6.18;2.90;;;;;;;;;;5014546;28;20536;-42
2021/09/19 08:36:24;;;;;;;3.88;2.70;;;;;;;;;;5014355;28;20026;-41
2021/09/19 08:38:52;;;;;;;5.60;3.20;;;;;;;;;;5014199;28;20025;-41
2021/09/19 08:41:20;;;;;;;3.80;2.65;;;;;;;;;;5014124;28;20374;-42
2021/09/19 08:43:48;;;;;;;4.13;2.63;;;;;;;;;;5014411;28;20429;-41
2021/09/19 08:46:22;;;;;;;6.45;3.00;;;;;;;;;;5014101;28;20021;-41
2021/09/19 08:48:49;;;;;;;4.53;2.72;;;;;;;;;;5014020;28;20025;-41
2021/09/19 08:51:16;;;;;;;4.68;2.90;;;;;;;;;;5013864;28;20413;-41
2021/09/19 08:53:43;;;;;;;4.80;2.58;;;;;;;;;;5013649;28;20559;-41
2021/09/19 08:56:10;;;;;;;4.15;2.70;;;;;;;;;;5013874;28;20038;-42
2021/09/19 08:58:38;;;;;;;5.72;2.78;;;;;;;;;;5014033;28;20026;-41
2021/09/19 09:01:05;;;;;;;7.40;2.63;;;;;;;;;;5012672;28;20022;-41
2021/09/19 09:03:32;;;;;;;4.15;2.63;;;;;;;;;;5013855;28;20028;-41
2021/09/19 09:06:04;;;;;;;3.33;2.60;;;;;;;;;;5013658;28;20036;-41
2021/09/19 09:08:32;;;;;;;3.20;2.63;;;;;;;;;;5013840;28;20030;-41
2021/09/19 09:11:04;;;;;;;4.47;2.67;;;;;;;;;;5013683;28;20029;-41
2021/09/19 09:13:32;;;;;;;4.20;2.70;;;;;;;;;;5013626;28;20077;-41
2021/09/19 09:16:02;;;;;;;4.25;2.67;;;;;;;;;;5013623;28;20301;-42
2021/09/19 09:18:40;;;;;;;3.53;2.63;;;;;;;;;;5013509;28;20022;-42
2021/09/19 09:21:08;;;;;;;11.43;2.85;;;;;;;;;;5013406;28;20029;-42
2021/09/19 09:23:36;;;;;;;3.47;2.90;;;;;;;;;;5013423;28;20041;-41
2021/09/19 09:26:17;;;;;;;5.13;2.58;;;;;;;;;;5013555;28;20022;-41
2021/09/19 09:28:46;;;;;;;3.35;2.70;;;;;;;;;;5013260;28;20030;-41
2021/09/19 09:31:14;;;;;;;3.75;2.60;;;;;;;;;;5013218;28;20030;-41
2021/09/19 09:33:54;;;;;;;3.83;2.50;;;;;;;;;;5013287;28;20010;-42
2021/09/19 09:36:29;;;;;;;4.35;2.70;;;;;;;;;;5013286;28;20024;-42
2021/09/19 09:38:56;;;;;;;5.88;2.72;;;;;;;;;;5013146;28;20105;-40
2021/09/19 09:41:38;;;;;;;5.43;2.50;;;;;;;;;;5013079;28;20034;-41
2021/09/19 09:44:23;;;;;;;3.35;2.45;;;;;;;;;;5013220;28;20018;-42
2021/09/19 09:46:51;;;;;;;5.13;2.60;;;;;;;;;;5013258;28;20032;-42
2021/09/19 09:49:22;;;;;;;5.57;2.45;;;;;;;;;;5011594;28;20021;-42
2021/09/19 09:51:49;;;;;;;5.30;2.60;;;;;;;;;;5012792;28;20030;-42
2021/09/19 09:54:16;;;;;;;6.00;2.78;;;;;;;;;;5012682;28;20112;-42
2021/09/19 09:56:46;;;;;;;3.80;2.45;;;;;;;;;;5012783;28;20448;-41
2021/09/19 09:59:15;;;;;;;5.15;2.40;;;;;;;;;;5012864;28;20038;-41
2021/09/19 10:01:43;;;;;;;3.58;2.50;;;;;;;;;;5012869;28;20466;-42
2021/09/19 10:04:10;;;;;;;2.97;2.15;;;;;;;;;;5012786;28;20026;-42
2021/09/19 10:06:37;;;;;;;4.05;2.60;;;;;;;;;;5012808;28;20080;-42
2021/09/19 10:09:04;;;;;;;3.25;2.20;;;;;;;;;;5012821;28;20040;-41
2021/09/19 10:11:31;;;;;;;3.95;2.53;;;;;;;;;;5012793;28;20105;-41
2021/09/19 10:13:58;;;;;;;3.13;2.10;;;;;;;;;;5012772;28;20553;-40
2021/09/19 10:16:25;;;;;;;4.30;2.38;;;;;;;;;;5012640;28;20026;-41
2021/09/19 10:18:53;;;;;;;2.80;2.50;;;;;;;;;;5012576;28;20425;-41
2021/09/19 10:21:23;;;;;;;4.03;2.30;;;;;;;;;;5012338;28;20034;-41
2021/09/19 10:23:50;;;;;;;4.35;2.53;;;;;;;;;;5012535;28;20049;-40
2021/09/19 10:26:22;;;;;;;4.15;2.63;;;;;;;;;;5012577;28;20420;-41
2021/09/19 10:28:52;;;;;;;3.30;2.60;;;;;;;;;;5012352;28;20026;-41
2021/09/19 10:31:21;;;;;;;3.65;2.42;;;;;;;;;;5012218;28;20045;-42
2021/09/19 10:33:53;;;;;;;5.88;2.50;;;;;;;;;;5012480;28;20022;-41
2021/09/19 10:36:23;;;;;;;6.03;2.30;;;;;;;;;;5012448;28;20068;-41
2021/09/19 10:38:50;;;;;;;3.45;2.03;;;;;;;;;;5011870;28;20022;-41
2021/09/19 10:41:18;;;;;;;4.70;2.35;;;;;;;;;;5012273;28;20480;-41
2021/09/19 10:44:01;;;;;;;4.10;2.17;;;;;;;;;;5012423;28;20029;-41
2021/09/19 10:46:34;;;;;;;3.83;2.35;;;;;;;;;;5012334;28;20030;-41
2021/09/19 10:49:14;;;;;;;3.33;2.25;;;;;;;;;;5012135;28;20032;-41
2021/09/19 10:52:18;;;;;;;3.70;2.50;;;;;;;;;;5012020;28;20036;-41
2021/09/19 10:54:45;;;;;;;4.50;2.60;;;;;;;;;;5000766;28;20092;-42
2021/09/19 10:57:32;;;;;;;3.53;2.15;;;;;;;;;;5011929;28;20014;-41
2021/09/19 11:00:17;;;;;;;4.28;2.30;;;;;;;;;;5012259;28;20389;-42
2021/09/19 11:03:19;;;;;;;4.28;2.28;;;;;;;;;;5012086;28;20536;-41
2021/09/19 11:05:55;;;;;;;3.88;2.15;;;;;;;;;;4973903;28;20505;-41
2021/09/19 11:08:22;;;;;;;4.18;2.50;;;;;;;;;;5009066;28;20139;-42
2021/09/19 11:10:50;;;;;;;3.47;2.47;;;;;;;;;;5011737;28;20460;-42
2021/09/19 11:13:22;;;;;;;3.30;2.25;;;;;;;;;;5012109;28;20386;-42
2021/09/19 11:16:05;;;;;;;2.67;1.90;;;;;;;;;;5011924;28;20109;-41
2021/09/19 11:18:41;;;;;;;4.35;2.10;;;;;;;;;;5012057;28;20026;-41
2021/09/19 11:21:11;;;;;;;4.88;2.25;;;;;;;;;;5011895;28;20100;-42
2021/09/19 11:23:45;;;;;;;3.83;2.00;;;;;;;;;;5011892;28;20014;-41
2021/09/19 11:26:17;;;;;;;3.72;2.47;;;;;;;;;;5011773;28;20034;-41
2021/09/19 11:28:44;;;;;;;2.85;2.03;;;;;;;;;;5011740;28;20053;-41
2021/09/19 11:31:11;;;;;;;2.80;2.00;;;;;;;;;;5011771;28;20038;-42
2021/09/19 11:33:39;;;;;;;3.20;2.05;;;;;;;;;;5011794;28;20022;-41
2021/09/19 11:36:07;;;;;;;4.00;2.22;;;;;;;;;;5011839;28;20034;-41
2021/09/19 11:38:38;;;;;;;2.47;2.00;;;;;;;;;;5011687;28;20018;-41
2021/09/19 11:41:06;;;;;;;3.58;2.42;;;;;;;;;;5011548;28;20454;-41
2021/09/19 11:43:34;;;;;;;3.22;2.30;;;;;;;;;;5011755;28;20014;-42
2021/09/19 11:46:02;;;;;;;4.95;2.17;;;;;;;;;;5011834;28;20410;-41
2021/09/19 11:48:30;;;;;;;2.80;1.83;;;;;;;;;;5011634;28;20430;-41
2021/09/19 11:50:57;;;;;;;4.32;2.00;;;;;;;;;;5012857;28;20096;-42
2021/09/19 11:53:24;;;;;;;6.25;1.98;;;;;;;;;;5015318;28;20030;-41
2021/09/19 11:55:51;;;;;;;3.70;2.20;;;;;;;;;;5014899;28;20038;-42
2021/09/19 11:58:19;;;;;;;2.92;1.85;;;;;;;;;;5015168;28;20030;-41
2021/09/19 12:00:53;;;;;;;6.25;2.20;;;;;;;;;;5015205;28;20013;-41
2021/09/19 12:03:20;;;;;;;6.43;2.20;;;;;;;;;;5015010;28;20072;-42
2021/09/19 12:05:51;;;;;;;6.65;2.35;;;;;;;;;;5014630;28;20026;-40
2021/09/19 12:08:19;;;;;;;3.97;2.00;;;;;;;;;;5014997;28;20445;-42
2021/09/19 12:10:47;;;;;;;3.15;2.13;;;;;;;;;;5014840;28;20042;-43
2021/09/19 12:13:25;;;;;;;3.58;2.08;;;;;;;;;;5014730;28;20026;-42
2021/09/19 12:16:02;;;;;;;3.58;2.38;;;;;;;;;;5014901;28;20037;-42
2021/09/19 12:18:31;;;;;;;3.35;2.28;;;;;;;;;;5014725;28;20026;-41
2021/09/19 12:21:05;;;;;;;3.28;2.13;;;;;;;;;;5014762;28;20048;-42
2021/09/19 12:23:44;;;;;;;5.20;2.10;;;;;;;;;;5014619;28;20029;-42
2021/09/19 12:26:21;;;;;;;6.65;2.92;;;;;;;;;;5014550;28;20033;-42
2021/09/19 12:28:49;;;;;;;2.42;2.08;;;;;;;;;;5014359;28;20049;-41
2021/09/19 12:31:34;;;;;;;2.75;1.98;;;;;;;;;;5014563;28;20026;-42
2021/09/19 12:34:02;;;;;;;3.22;2.28;;;;;;;;;;5014416;28;20048;-41
2021/09/19 12:36:29;;;;;;;3.90;2.00;;;;;;;;;;5014584;28;20470;-41
2021/09/19 12:38:56;;;;;;;3.03;2.00;;;;;;;;;;5014313;28;20022;-41
2021/09/19 12:41:23;;;;;;;3.47;2.00;;;;;;;;;;5014288;28;20030;-41
2021/09/19 12:43:50;;;;;;;3.13;2.13;;;;;;;;;;5013073;28;20535;-39
2021/09/19 12:46:17;;;;;;;5.53;2.10;;;;;;;;;;5011284;28;20477;-40
2021/09/19 12:48:44;;;;;;;5.53;2.30;;;;;;;;;;5004375;28;20474;-41
2021/09/19 12:51:16;;;;;;;4.38;2.15;;;;;;;;;;5006711;28;20034;-42
2021/09/19 12:53:48;;;;;;;3.92;2.40;;;;;;;;;;5006128;28;20030;-41
2021/09/19 12:56:16;;;;;;;4.70;2.20;;;;;;;;;;5012817;28;20026;-41
2021/09/19 12:58:45;;;;;;;3.70;2.00;;;;;;;;;;5010914;28;20062;-41
2021/09/19 13:01:13;;;;;;;2.85;1.88;;;;;;;;;;5002366;28;20105;-41
2021/09/19 13:03:40;;;;;;;3.40;2.17;;;;;;;;;;4993899;28;20522;-42
2021/09/19 13:06:08;;;;;;;4.28;2.20;;;;;;;;;;4993605;28;20019;-41
2021/09/19 13:08:35;;;;;;;4.35;2.10;;;;;;;;;;4993193;28;20026;-42
2021/09/19 13:11:02;;;;;;;3.75;2.05;;;;;;;;;;4993348;28;20030;-41
2021/09/19 13:13:29;;;;;;;4.20;2.33;;;;;;;;;;4993733;28;20019;-41
2021/09/19 13:15:56;;;;;;;3.22;1.95;;;;;;;;;;4993970;28;20533;-41
2021/09/19 13:18:23;;;;;;;6.28;2.30;;;;;;;;;;4993254;28;20034;-41
2021/09/19 13:20:50;;;;;;;7.07;2.47;;;;;;;;;;4992979;28;20482;-42
2021/09/19 13:23:17;;;;;;;7.13;2.30;;;;;;;;;;4993441;28;20101;-41
2021/09/19 13:25:44;;;;;;;4.50;2.22;;;;;;;;;;5008655;28;20028;-40
2021/09/19 13:28:11;;;;;;;5.82;2.10;;;;;;;;;;5012011;28;20030;-39
2021/09/19 13:30:39;;;;;;;5.30;2.25;;;;;;;;;;5011935;28;20792;-41
2021/09/19 13:33:06;;;;;;;7.43;2.40;;;;;;;;;;5011598;28;20348;-41
2021/09/19 13:35:34;;;;;;;5.50;2.05;;;;;;;;;;5008667;28;20033;-41
2021/09/19 13:38:01;;;;;;;13.73;2.50;;;;;;;;;;5012189;28;20036;-40
2021/09/19 13:40:28;;;;;;;2.65;1.80;;;;;;;;;;5012403;28;20022;-42
2021/09/19 13:42:55;;;;;;;8.80;2.47;;;;;;;;;;5010192;28;20379;-39
2021/09/19 13:45:22;;;;;;;5.68;2.38;;;;;;;;;;5005251;28;20080;-39
2021/09/19 13:47:49;;;;;;;4.53;2.35;;;;;;;;;;5005930;28;20022;-41
2021/09/19 13:50:16;;;;;;;7.75;2.30;;;;;;;;;;4991324;28;20122;-41
2021/09/19 13:52:43;;;;;;;8.05;2.30;;;;;;;;;;4992169;28;20061;-40
2021/09/19 13:55:10;;;;;;;3.38;1.90;;;;;;;;;;4992011;28;20133;-40
2021/09/19 13:57:37;;;;;;;13.25;2.25;;;;;;;;;;4995424;28;20025;-42
2021/09/19 14:00:06;;;;;;;13.05;2.90;;;;;;;;;;5004511;28;20032;-41
2021/09/19 14:02:33;;;;;;;7.22;2.20;;;;;;;;;;4993474;28;20057;-41
2021/09/19 14:05:00;;;;;;;6.93;2.42;;;;;;;;;;4992278;28;20029;-41
2021/09/19 14:07:27;;;;;;;7.80;2.30;;;;;;;;;;4991319;28;20030;-41
2021/09/19 14:09:54;;;;;;;8.75;2.63;;;;;;;;;;4993864;28;20045;-41
2021/09/19 14:12:21;;;;;;;6.75;2.33;;;;;;;;;;4996953;28;20046;-41
2021/09/19 14:14:48;;;;;;;4.45;2.33;;;;;;;;;;4992989;28;20075;-41
2021/09/19 14:17:16;;;;;;;7.38;2.55;;;;;;;;;;4992325;28;20029;-41
2021/09/19 14:19:43;;;;;;;7.68;2.30;;;;;;;;;;4992463;28;20049;-40
2021/09/19 14:22:10;;;;;;;8.68;2.53;;;;;;;;;;4987734;28;20019;-38
2021/09/19 14:24:37;;;;;;;12.60;2.58;;;;;;;;;;4994033;28;20034;-46
2021/09/19 14:27:04;;;;;;;7.10;2.35;;;;;;;;;;4993045;28;20025;-46
2021/09/19 14:29:31;;;;;;;5.88;2.10;;;;;;;;;;4993211;28;20038;-41
2021/09/19 14:31:58;;;;;;;8.60;2.70;;;;;;;;;;4994718;28;20022;-41
2021/09/19 14:34:25;;;;;;;9.32;2.65;;;;;;;;;;4992301;28;20027;-39
2021/09/19 14:36:53;;;;;;;7.63;2.60;;;;;;;;;;4992813;28;20018;-41
2021/09/19 14:39:20;;;;;;;10.20;2.72;;;;;;;;;;4992690;28;20037;-41
2021/09/19 14:41:47;;;;;;;8.98;2.53;;;;;;;;;;4992342;28;20020;-42
2021/09/19 14:44:15;;;;;;;8.15;2.65;;;;;;;;;;4992033;28;20502;-42